createdAt,value
2023-03-04T00:01:32.814Z,29.50
2023-03-04T00:04:00.825Z,29.80
2023-03-04T00:06:28.839Z,29.60
2023-03-04T00:08:57.014Z,28.20
2023-03-04T00:11:25.527Z,27.90
2023-03-04T00:13:53.568Z,29.10
2023-03-04T00:16:21.696Z,30.70
2023-03-04T00:18:49.719Z,30.30
2023-03-04T00:21:17.693Z,27.50
2023-03-04T00:23:45.750Z,30.40
2023-03-04T00:26:15.157Z,29.70
2023-03-04T00:28:43.834Z,32.10
2023-03-04T00:31:12.351Z,28.30
2023-03-04T00:33:40.694Z,31.20
2023-03-04T00:36:08.970Z,35.00
2023-03-04T00:38:36.955Z,34.40
2023-03-04T00:41:05.332Z,32.60
2023-03-04T00:43:33.490Z,35.60
2023-03-04T00:46:01.570Z,34.20
2023-03-04T00:48:31.267Z,31.70
2023-03-04T00:50:59.374Z,31.60
2023-03-04T00:53:27.412Z,32.50
2023-03-04T00:55:55.489Z,37.10
2023-03-04T00:58:23.578Z,34.00
2023-03-04T01:00:52.656Z,38.10
2023-03-04T01:03:20.975Z,34.20
2023-03-04T01:05:49.009Z,35.20
2023-03-04T01:08:17.779Z,34.60
2023-03-04T01:10:46.219Z,36.60
2023-03-04T01:13:14.231Z,35.40
2023-03-04T01:15:42.206Z,33.70
2023-03-04T01:18:10.262Z,36.50
2023-03-04T01:20:38.341Z,34.90
2023-03-04T01:23:06.413Z,35.90
2023-03-04T01:25:34.402Z,34.80
2023-03-04T01:28:02.556Z,32.90
2023-03-04T01:30:30.657Z,33.90
2023-03-04T01:32:59.113Z,33.00
2023-03-04T01:35:27.225Z,32.30
2023-03-04T01:37:55.213Z,31.40
2023-03-04T01:40:23.216Z,33.70
2023-03-04T01:42:51.294Z,32.70
2023-03-04T01:45:20.192Z,33.10
2023-03-04T01:47:50.195Z,33.70
2023-03-04T01:50:33.217Z,36.00
2023-03-04T01:53:03.887Z,34.00
2023-03-04T01:55:32.460Z,32.90
2023-03-04T01:58:01.010Z,33.90
2023-03-04T02:00:32.414Z,32.70
2023-03-04T02:03:05.250Z,29.40
2023-03-04T02:05:34.444Z,33.50
2023-03-04T02:08:04.872Z,34.70
2023-03-04T02:10:33.965Z,32.60
2023-03-04T02:13:02.964Z,26.00
2023-03-04T02:15:31.335Z,32.70
2023-03-04T02:18:00.329Z,30.20
2023-03-04T02:21:06.916Z,33.00
2023-03-04T02:24:04.364Z,28.60
2023-03-04T02:26:35.347Z,26.60
2023-03-04T02:29:04.828Z,25.00
2023-03-04T02:31:36.117Z,27.50
2023-03-04T02:34:09.958Z,28.10
2023-03-04T02:36:39.388Z,27.40
2023-03-04T02:39:13.531Z,29.80
2023-03-04T02:41:43.521Z,30.80
2023-03-04T02:44:35.023Z,27.80
2023-03-04T02:47:05.902Z,30.00
2023-03-04T02:49:35.885Z,27.40
2023-03-04T02:52:10.241Z,26.20
2023-03-04T02:54:39.689Z,26.80
2023-03-04T02:57:10.486Z,27.20
2023-03-04T02:59:41.869Z,29.70
2023-03-04T03:02:11.790Z,26.30
2023-03-04T03:04:41.350Z,27.30
2023-03-04T03:07:11.613Z,26.90
2023-03-04T03:09:39.603Z,24.80
2023-03-04T03:12:07.862Z,25.90
2023-03-04T03:14:36.037Z,24.90
2023-03-04T03:17:04.360Z,28.00
2023-03-04T03:19:32.684Z,26.90
2023-03-04T03:22:01.986Z,29.10
2023-03-04T03:24:29.965Z,27.60
2023-03-04T03:26:57.930Z,29.30
2023-03-04T03:29:26.440Z,28.10
2023-03-04T03:31:54.562Z,29.40
2023-03-04T03:34:22.952Z,28.60
2023-03-04T03:36:51.353Z,26.30
2023-03-04T03:39:19.297Z,27.50
2023-03-04T03:41:47.267Z,27.30
2023-03-04T03:44:15.446Z,24.60
2023-03-04T03:46:43.409Z,27.60
2023-03-04T03:49:11.585Z,25.70
2023-03-04T03:51:39.551Z,27.30
2023-03-04T03:54:07.621Z,24.70
2023-03-04T03:56:35.793Z,26.50
2023-03-04T03:59:03.766Z,24.00
2023-03-04T04:01:31.734Z,27.20
2023-03-04T04:04:00.428Z,25.90
2023-03-04T04:06:28.489Z,25.20
2023-03-04T04:08:56.875Z,26.90
2023-03-04T04:11:24.938Z,27.00
2023-03-04T04:13:52.968Z,28.50
2023-03-04T04:16:21.001Z,28.30
2023-03-04T04:18:49.151Z,25.70
2023-03-04T04:21:17.152Z,27.90
2023-03-04T04:23:45.189Z,26.80
2023-03-04T04:26:13.162Z,25.90
2023-03-04T04:28:41.150Z,27.70
2023-03-04T04:31:10.371Z,27.90
2023-03-04T04:33:38.499Z,24.40
2023-03-04T04:36:07.208Z,23.60
2023-03-04T04:38:35.353Z,26.30
2023-03-04T04:41:04.112Z,26.30
2023-03-04T04:43:32.107Z,26.20
2023-03-04T04:46:00.621Z,23.00
2023-03-04T04:48:28.667Z,25.60
2023-03-04T04:50:56.836Z,27.40
2023-03-04T04:53:25.009Z,26.20
2023-03-04T04:55:53.188Z,25.60
2023-03-04T04:58:21.159Z,24.00
2023-03-04T05:00:49.637Z,24.50
2023-03-04T05:03:18.672Z,20.90
2023-03-04T05:05:47.105Z,25.00
2023-03-04T05:08:15.184Z,22.10
2023-03-04T05:10:43.252Z,22.20
2023-03-04T05:13:11.320Z,24.70
2023-03-04T05:15:39.698Z,23.20
2023-03-04T05:18:07.880Z,25.40
2023-03-04T05:20:36.289Z,22.10
2023-03-04T05:23:04.322Z,24.80
2023-03-04T05:25:32.397Z,23.80
2023-03-04T05:28:02.264Z,22.30
2023-03-04T05:30:30.285Z,21.60
2023-03-04T05:32:58.349Z,24.00
2023-03-04T05:35:28.870Z,22.80
2023-03-04T05:37:57.886Z,22.90
2023-03-04T05:40:26.030Z,20.80
2023-03-04T05:42:54.020Z,22.10
2023-03-04T05:45:21.988Z,23.70
2023-03-04T05:47:50.369Z,21.70
2023-03-04T05:50:18.904Z,26.20
2023-03-04T05:52:47.139Z,20.20
2023-03-04T05:55:16.113Z,20.50
2023-03-04T05:57:44.909Z,21.20
2023-03-04T06:00:14.776Z,20.10
2023-03-04T06:02:43.841Z,22.60
2023-03-04T06:05:14.140Z,22.80
2023-03-04T06:07:43.413Z,22.80
2023-03-04T06:10:14.315Z,24.20
2023-03-04T06:12:43.125Z,22.60
2023-03-04T06:15:13.041Z,20.80
2023-03-04T06:17:43.536Z,19.50
2023-03-04T06:20:12.497Z,19.90
2023-03-04T06:22:40.862Z,22.70
2023-03-04T06:25:09.710Z,22.50
2023-03-04T06:27:37.723Z,21.00
2023-03-04T06:30:07.010Z,20.80
2023-03-04T06:32:35.174Z,26.50
2023-03-04T06:35:03.367Z,20.20
2023-03-04T06:37:31.378Z,21.80
2023-03-04T06:39:59.322Z,20.50
2023-03-04T06:42:27.380Z,23.40
2023-03-04T06:44:55.591Z,20.70
2023-03-04T06:47:23.622Z,20.90
2023-03-04T06:49:52.923Z,22.50
2023-03-04T06:52:20.997Z,20.20
2023-03-04T06:54:48.953Z,20.20
2023-03-04T06:57:17.060Z,20.60
2023-03-04T06:59:45.023Z,20.30
2023-03-04T07:02:13.501Z,21.00
2023-03-04T07:04:41.970Z,21.20
2023-03-04T07:07:11.979Z,18.70
2023-03-04T07:09:40.354Z,20.60
2023-03-04T07:12:08.346Z,20.70
2023-03-04T07:14:36.392Z,19.50
2023-03-04T07:17:04.641Z,16.70
2023-03-04T07:19:32.516Z,16.80
2023-03-04T07:22:00.395Z,23.10
2023-03-04T07:24:28.307Z,21.30
2023-03-04T07:26:56.259Z,20.00
2023-03-04T07:29:24.132Z,18.40
2023-03-04T07:31:53.721Z,18.70
2023-03-04T07:34:21.884Z,16.20
2023-03-04T07:36:49.836Z,17.80
2023-03-04T07:39:17.825Z,18.80
2023-03-04T07:41:45.681Z,17.70
2023-03-04T07:44:13.910Z,18.70
2023-03-04T07:46:41.932Z,18.20
2023-03-04T07:49:12.871Z,19.70
2023-03-04T07:51:40.944Z,18.20
2023-03-04T07:54:10.445Z,20.80
2023-03-04T07:56:38.661Z,17.70
2023-03-04T07:59:06.905Z,16.80
2023-03-04T08:01:37.235Z,20.20
2023-03-04T08:04:07.695Z,18.50
2023-03-04T08:06:36.130Z,16.20
2023-03-04T08:09:06.571Z,15.80
2023-03-04T08:11:36.988Z,15.50
2023-03-04T08:14:05.566Z,16.70
2023-03-04T08:16:33.633Z,18.80
2023-03-04T08:19:03.575Z,20.30
2023-03-04T08:21:32.332Z,17.70
2023-03-04T08:24:08.435Z,15.40
2023-03-04T08:26:42.091Z,15.80
2023-03-04T08:29:14.264Z,14.70
2023-03-04T08:31:43.225Z,19.30
2023-03-04T08:34:13.081Z,17.90
2023-03-04T08:36:44.086Z,14.60
2023-03-04T08:39:13.688Z,18.70
2023-03-04T08:41:42.091Z,16.70
2023-03-04T08:44:13.263Z,15.70
2023-03-04T08:46:43.147Z,14.10
2023-03-04T08:49:13.198Z,17.90
2023-03-04T08:51:41.156Z,16.20
2023-03-04T08:54:09.201Z,15.60
2023-03-04T08:56:38.448Z,16.50
2023-03-04T08:59:06.376Z,14.60
2023-03-04T09:01:34.357Z,14.60
2023-03-04T09:04:02.433Z,15.80
2023-03-04T09:06:30.588Z,17.80
2023-03-04T09:08:59.696Z,14.80
2023-03-04T09:11:27.653Z,14.90
2023-03-04T09:13:55.735Z,14.80
2023-03-04T09:16:23.856Z,16.20
2023-03-04T09:18:51.868Z,16.10
2023-03-04T09:21:20.246Z,13.40
2023-03-04T09:23:48.167Z,15.80
2023-03-04T09:26:27.261Z,15.90
2023-03-04T09:28:59.016Z,17.80
2023-03-04T09:31:28.440Z,18.00
2023-03-04T09:33:57.936Z,16.20
2023-03-04T09:36:26.006Z,15.30
2023-03-04T09:38:54.246Z,16.50
2023-03-04T09:41:27.356Z,16.60
2023-03-04T09:43:57.172Z,17.70
2023-03-04T09:46:38.701Z,19.60
2023-03-04T09:49:07.600Z,15.60
2023-03-04T09:51:35.710Z,16.70
2023-03-04T09:54:14.928Z,15.60
2023-03-04T09:56:43.101Z,17.30
2023-03-04T09:59:39.065Z,16.20
2023-03-04T10:02:36.074Z,17.20
2023-03-04T10:05:07.323Z,15.40
2023-03-04T10:07:41.554Z,15.00
2023-03-04T10:10:24.934Z,19.40
2023-03-04T10:12:55.176Z,21.40
2023-03-04T10:15:39.973Z,20.50
2023-03-04T10:18:28.132Z,17.90
2023-03-04T10:21:29.472Z,18.80
2023-03-04T10:23:59.835Z,16.20
2023-03-04T10:26:33.171Z,16.30
2023-03-04T10:29:03.283Z,17.70
2023-03-04T10:31:36.903Z,16.40
2023-03-04T10:34:07.136Z,18.10
2023-03-04T10:36:55.477Z,15.80
2023-03-04T10:39:32.220Z,21.00
2023-03-04T10:44:52.793Z,17.10
2023-03-04T10:47:24.817Z,16.30
2023-03-04T10:49:56.930Z,15.90
2023-03-04T10:52:32.124Z,15.10
2023-03-04T10:55:14.705Z,15.90
2023-03-04T10:57:44.849Z,15.10
2023-03-04T11:00:18.596Z,16.90
2023-03-04T11:02:48.278Z,14.40
2023-03-04T11:05:17.755Z,16.80
2023-03-04T11:07:56.351Z,13.60
2023-03-04T11:10:31.421Z,16.70
2023-03-04T11:12:59.351Z,13.80
2023-03-04T11:15:31.465Z,20.40
2023-03-04T11:18:22.472Z,15.30
2023-03-04T11:20:51.314Z,18.30
2023-03-04T11:23:19.169Z,13.00
2023-03-04T11:25:56.537Z,13.90
2023-03-04T11:28:35.034Z,16.50
2023-03-04T11:31:16.688Z,18.00
2023-03-04T11:33:54.089Z,14.10
2023-03-04T11:36:33.229Z,13.60
2023-03-04T11:39:03.554Z,17.90
2023-03-04T11:41:47.272Z,17.80
2023-03-04T11:44:15.295Z,16.40
2023-03-04T11:47:07.823Z,17.00
2023-03-04T11:50:04.260Z,14.70
2023-03-04T11:52:47.357Z,17.30
2023-03-04T11:55:56.522Z,18.20
2023-03-04T11:58:39.411Z,13.80
2023-03-04T12:01:19.651Z,13.60
2023-03-04T12:03:57.847Z,17.70
2023-03-04T12:06:48.792Z,16.40
2023-03-04T12:09:45.624Z,15.30
2023-03-04T12:12:25.780Z,17.00
2023-03-04T12:15:02.074Z,14.60
2023-03-04T12:17:30.741Z,14.30
2023-03-04T12:20:24.770Z,14.50
2023-03-04T12:23:03.838Z,12.50
2023-03-04T12:25:52.795Z,13.90
2023-03-04T12:28:39.309Z,12.70
2023-03-04T12:33:56.844Z,20.20
2023-03-04T12:36:44.066Z,19.70
2023-03-04T12:39:27.300Z,34.20
2023-03-04T12:42:18.207Z,32.60
2023-03-04T12:45:01.829Z,23.60
2023-03-04T12:47:48.948Z,23.30
2023-03-04T12:50:38.554Z,14.70
2023-03-04T12:53:32.808Z,15.60
2023-03-04T12:56:03.271Z,11.30
2023-03-04T12:58:34.007Z,12.30
2023-03-04T13:01:16.180Z,13.70
2023-03-04T13:04:03.597Z,12.20
2023-03-04T13:06:43.891Z,15.80
2023-03-04T13:09:16.967Z,17.50
2023-03-04T13:11:50.549Z,16.30
2023-03-04T13:14:21.277Z,14.90
2023-03-04T13:16:54.021Z,20.90
2023-03-04T13:19:44.581Z,15.60
2023-03-04T13:22:45.289Z,12.70
2023-03-04T13:25:33.749Z,13.80
2023-03-04T13:28:10.971Z,17.20
2023-03-04T13:30:38.993Z,11.80
2023-03-04T13:33:16.233Z,14.40
2023-03-04T13:35:50.279Z,15.50
2023-03-04T13:38:38.773Z,17.40
2023-03-04T13:41:32.048Z,14.60
2023-03-04T13:44:02.218Z,10.10
2023-03-04T13:46:40.817Z,11.20
2023-03-04T13:49:22.427Z,10.50
2023-03-04T13:51:51.570Z,13.80
2023-03-04T13:54:19.752Z,12.30
2023-03-04T13:57:16.875Z,14.20
2023-03-04T13:59:49.585Z,10.50
2023-03-04T14:02:22.656Z,7.50
2023-03-04T14:04:53.971Z,7.00
2023-03-04T14:07:35.613Z,15.80
2023-03-04T14:10:12.690Z,8.40
2023-03-04T14:12:49.619Z,9.90
2023-03-04T14:17:49.270Z,10.60
2023-03-04T14:20:23.457Z,10.30
2023-03-04T14:22:51.938Z,7.40
2023-03-04T14:25:22.593Z,7.30
2023-03-04T14:28:01.696Z,9.50
2023-03-04T14:30:42.181Z,6.50
2023-03-04T14:33:31.247Z,9.10
2023-03-04T14:36:02.684Z,6.40
2023-03-04T14:38:41.814Z,6.80
2023-03-04T14:41:18.739Z,7.70
2023-03-04T14:44:08.970Z,11.70
2023-03-04T14:46:44.189Z,7.90
2023-03-04T14:49:15.666Z,8.10
2023-03-04T14:51:47.370Z,10.50
2023-03-04T14:54:28.906Z,15.40
2023-03-04T14:56:58.822Z,13.80
2023-03-04T14:59:32.498Z,24.40
2023-03-04T15:02:43.559Z,21.40
2023-03-04T15:05:25.832Z,24.50
2023-03-04T15:08:00.704Z,21.80
2023-03-04T15:10:39.253Z,17.00
2023-03-04T15:13:09.466Z,12.60
2023-03-04T15:15:44.380Z,11.70
2023-03-04T15:18:21.284Z,10.00
2023-03-04T15:21:21.610Z,12.20
2023-03-04T15:23:49.599Z,12.60
2023-03-04T15:26:17.953Z,10.80
2023-03-04T15:28:46.048Z,11.20
2023-03-04T15:31:19.980Z,10.50
2023-03-04T15:33:48.821Z,10.80
2023-03-04T15:36:20.206Z,11.00
2023-03-04T15:38:51.887Z,11.50
2023-03-04T15:41:25.568Z,13.30
2023-03-04T15:43:54.738Z,9.30
2023-03-04T15:46:23.165Z,8.30
2023-03-04T15:48:51.402Z,14.40
2023-03-04T15:51:22.869Z,8.80
2023-03-04T15:53:56.970Z,10.50
2023-03-04T15:56:28.947Z,10.00
2023-03-04T15:59:01.310Z,8.10
2023-03-04T16:01:29.745Z,9.70
2023-03-04T16:03:57.879Z,14.50
2023-03-04T16:06:30.061Z,10.50
2023-03-04T16:08:59.397Z,10.50
2023-03-04T16:11:30.336Z,6.00
2023-03-04T16:14:00.331Z,6.20
2023-03-04T16:16:28.210Z,5.00
2023-03-04T16:18:56.290Z,4.20
2023-03-04T16:21:24.260Z,5.40
2023-03-04T16:23:54.503Z,6.50
2023-03-04T16:26:25.352Z,4.70
2023-03-04T16:28:54.337Z,6.60
2023-03-04T16:31:22.840Z,5.30
2023-03-04T16:33:51.181Z,6.50
2023-03-04T16:36:23.441Z,7.40
2023-03-04T16:38:54.707Z,6.60
2023-03-04T16:41:26.540Z,7.90
2023-03-04T16:43:56.967Z,8.80
2023-03-04T16:46:25.188Z,4.50
2023-03-04T16:48:53.216Z,11.80
2023-03-04T16:51:23.655Z,8.90
2023-03-04T16:54:02.039Z,9.70
2023-03-04T16:56:30.062Z,8.00
2023-03-04T16:58:58.006Z,5.50
2023-03-04T17:01:28.947Z,5.80
2023-03-04T17:03:57.561Z,6.70
2023-03-04T17:06:25.892Z,9.10
2023-03-04T17:08:53.960Z,6.00
2023-03-04T17:11:23.710Z,7.90
2023-03-04T17:13:52.041Z,5.70
2023-03-04T17:16:20.159Z,3.80
2023-03-04T17:18:48.924Z,8.30
2023-03-04T17:21:20.073Z,9.10
2023-03-04T17:23:48.658Z,5.40
2023-03-04T17:26:21.034Z,8.10
2023-03-04T17:28:50.602Z,13.00
2023-03-04T17:31:20.629Z,8.40
2023-03-04T17:33:49.004Z,7.10
2023-03-04T17:36:18.926Z,6.90
2023-03-04T17:38:49.692Z,6.70
2023-03-04T17:41:18.964Z,5.50
2023-03-04T17:43:49.714Z,8.50
2023-03-04T17:46:23.173Z,8.20
2023-03-04T17:48:56.360Z,8.10
2023-03-04T17:51:36.333Z,7.60
2023-03-04T17:54:06.809Z,7.40
2023-03-04T17:56:37.296Z,8.30
2023-03-04T17:59:09.142Z,7.80
2023-03-04T18:01:37.313Z,8.50
2023-03-04T18:04:06.121Z,5.50
2023-03-04T18:06:34.175Z,6.20
2023-03-04T18:09:02.185Z,5.20
2023-03-04T18:11:31.344Z,6.10
2023-03-04T18:13:59.509Z,7.90
2023-03-04T18:16:29.122Z,5.20
2023-03-04T18:18:59.873Z,4.50
2023-03-04T18:21:29.901Z,5.30
2023-03-04T18:23:58.390Z,7.20
2023-03-04T18:26:27.057Z,6.50
2023-03-04T18:28:56.443Z,6.30
2023-03-04T18:31:34.247Z,7.00
2023-03-04T18:34:07.571Z,6.80
2023-03-04T18:36:35.604Z,6.70
2023-03-04T18:39:05.793Z,6.50
2023-03-04T18:41:33.931Z,9.70
2023-03-04T18:44:02.171Z,7.20
2023-03-04T18:46:55.846Z,8.20
2023-03-04T18:49:24.356Z,8.70
2023-03-04T18:51:52.403Z,11.60
2023-03-04T18:54:20.672Z,7.30
2023-03-04T18:56:59.703Z,9.40
2023-03-04T18:59:33.661Z,8.10
2023-03-04T19:02:05.489Z,8.30
2023-03-04T19:04:33.967Z,5.90
2023-03-04T19:07:01.949Z,15.30
2023-03-04T19:09:29.997Z,8.50
2023-03-04T19:11:58.068Z,7.90
2023-03-04T19:14:25.974Z,9.50
2023-03-04T19:16:54.021Z,6.50
2023-03-04T19:19:22.111Z,7.70
2023-03-04T19:21:50.148Z,16.60
2023-03-04T19:24:18.211Z,10.80
2023-03-04T19:26:46.237Z,7.30
2023-03-04T19:29:15.383Z,8.70
2023-03-04T19:31:43.552Z,8.10
2023-03-04T19:34:12.244Z,9.10
2023-03-04T19:36:40.313Z,9.80
2023-03-04T19:39:10.150Z,8.50
2023-03-04T19:41:38.494Z,13.90
2023-03-04T19:44:06.563Z,14.40
2023-03-04T19:46:34.947Z,13.40
2023-03-04T19:49:04.792Z,10.90
2023-03-04T19:51:33.251Z,29.20
2023-03-04T19:54:02.070Z,8.00
2023-03-04T19:56:30.653Z,10.50
2023-03-04T19:58:58.881Z,7.10
2023-03-04T20:01:30.473Z,10.80
2023-03-04T20:04:02.196Z,7.30
2023-03-04T20:06:30.778Z,6.90
2023-03-04T20:09:00.823Z,10.30
2023-03-04T20:11:30.106Z,5.90
2023-03-04T20:14:00.414Z,5.70
2023-03-04T20:16:29.428Z,6.40
2023-03-04T20:18:58.428Z,7.20
2023-03-04T20:21:29.774Z,9.00
2023-03-04T20:24:00.839Z,10.50
2023-03-04T20:26:30.728Z,9.90
2023-03-04T20:28:59.998Z,9.50
2023-03-04T20:31:31.557Z,7.40
2023-03-04T20:34:00.295Z,9.10
2023-03-04T20:36:29.871Z,6.70
2023-03-04T20:39:02.432Z,5.20
2023-03-04T20:41:32.750Z,6.40
2023-03-04T20:44:01.430Z,8.20
2023-03-04T20:46:39.918Z,4.10
2023-03-04T20:49:16.778Z,6.70
2023-03-04T20:51:44.791Z,5.50
2023-03-04T20:54:12.761Z,6.70
2023-03-04T20:56:41.260Z,6.30
2023-03-04T20:59:11.653Z,6.10
2023-03-04T21:01:42.091Z,5.30
2023-03-04T21:04:11.158Z,6.30
2023-03-04T21:06:40.730Z,5.50
2023-03-04T21:09:13.478Z,6.50
2023-03-04T21:11:42.300Z,6.40
2023-03-04T21:14:16.325Z,6.90
2023-03-04T21:16:44.205Z,12.50
2023-03-04T21:19:18.735Z,9.30
2023-03-04T21:21:48.908Z,9.40
2023-03-04T21:24:19.608Z,9.40
2023-03-04T21:26:48.541Z,9.60
2023-03-04T21:29:19.253Z,9.20
2023-03-04T21:31:50.439Z,9.20
2023-03-04T21:34:22.775Z,7.00
2023-03-04T21:36:51.654Z,10.20
2023-03-04T21:39:23.014Z,14.00
2023-03-04T21:41:52.965Z,10.60
2023-03-04T21:44:28.355Z,10.60
2023-03-04T21:46:58.049Z,9.50
2023-03-04T21:49:26.581Z,11.30
2023-03-04T21:51:54.852Z,10.60
2023-03-04T21:54:23.358Z,11.30
2023-03-04T21:56:51.607Z,10.80
2023-03-04T21:59:19.777Z,11.60
2023-03-04T22:01:47.918Z,13.30
2023-03-04T22:04:16.025Z,11.50
2023-03-04T22:06:43.993Z,13.30
2023-03-04T22:09:13.193Z,35.40
2023-03-04T22:11:41.370Z,72.60
2023-03-04T22:14:10.840Z,68.90
2023-03-04T22:16:56.188Z,133.30
2023-03-04T22:19:26.490Z,166.60
2023-03-04T22:21:54.557Z,81.70
2023-03-04T22:24:23.046Z,60.50
2023-03-04T22:26:51.198Z,93.20
2023-03-04T22:29:19.171Z,82.80
2023-03-04T22:31:47.225Z,81.30
2023-03-04T22:34:16.034Z,50.70
2023-03-04T22:36:45.777Z,38.60
2023-03-04T22:39:19.382Z,33.00
2023-03-04T22:41:48.172Z,29.20
2023-03-04T22:44:16.969Z,22.80
2023-03-04T22:46:45.202Z,19.10
2023-03-04T22:49:14.591Z,18.80
2023-03-04T22:51:44.711Z,14.50
2023-03-04T22:54:16.534Z,12.30
2023-03-04T22:56:45.566Z,12.20
2023-03-04T22:59:14.743Z,14.80
2023-03-04T23:01:43.261Z,18.60
2023-03-04T23:04:12.022Z,17.00
2023-03-04T23:06:40.402Z,16.20
2023-03-04T23:09:08.522Z,17.10
2023-03-04T23:11:37.491Z,12.00
2023-03-04T23:14:08.626Z,9.50
2023-03-04T23:16:42.436Z,10.20
2023-03-04T23:19:16.197Z,7.60
2023-03-04T23:21:44.505Z,11.00
2023-03-04T23:24:14.182Z,9.10
2023-03-04T23:26:43.503Z,5.30
2023-03-04T23:29:15.183Z,8.90
2023-03-04T23:31:44.619Z,8.30
2023-03-04T23:34:13.666Z,10.20
2023-03-04T23:36:42.445Z,11.20
2023-03-04T23:39:12.452Z,9.10
2023-03-04T23:41:40.703Z,14.30
2023-03-04T23:44:08.710Z,9.60
2023-03-04T23:46:37.907Z,9.80
2023-03-04T23:49:07.935Z,8.00
2023-03-04T23:51:36.441Z,10.50
2023-03-04T23:54:04.675Z,8.50
2023-03-04T23:56:32.781Z,8.50
2023-03-04T23:59:01.122Z,9.40
